Time;durP1;ratioP1;P1;durP2;ratioP2;P2;SDS_P1;SDS_P2;PMS_P1;PMS_P2;Temp;Humidity;BMP_temperature;BMP_pressure;BME280_temperature;BME280_humidity;BME280_pressure;Samples;Min_cycle;Max_cycle;Signal;HPM_P1;HPM_P2
2022/03/17 00:00:15;;;;;;;19.48;10.50;;;;;;;5.79;69.27;94510.25;5042868;28;20043;-79
2022/03/17 00:02:41;;;;;;;24.50;11.93;;;;;;;5.78;68.99;94503.38;5042570;28;20025;-78
2022/03/17 00:05:08;;;;;;;20.88;11.32;;;;;;;5.84;69.02;94504.16;5042439;28;20025;-78
2022/03/17 00:07:38;;;;;;;25.60;10.55;;;;;;;5.87;68.79;94505.47;5042276;28;20617;-79
2022/03/17 00:10:09;;;;;;;22.05;11.35;;;;;;;5.85;68.89;94503.09;5042525;28;20227;-78
2022/03/17 00:12:35;;;;;;;17.48;10.73;;;;;;;5.83;68.81;94505.22;5042416;28;20033;-78
2022/03/17 00:15:01;;;;;;;20.75;10.68;;;;;;;5.91;68.85;94504.69;5041825;28;20252;-78
2022/03/17 00:17:27;;;;;;;18.25;10.40;;;;;;;5.86;68.74;94501.25;5042257;28;20029;-78
2022/03/17 00:19:53;;;;;;;18.50;10.95;;;;;;;5.86;68.23;94503.88;5024717;28;20025;-78
2022/03/17 00:22:19;;;;;;;22.05;11.95;;;;;;;5.82;68.41;94504.44;5042292;28;20021;-80
2022/03/17 00:24:46;;;;;;;18.70;11.57;;;;;;;5.86;68.59;94503.88;5042461;28;20026;-80
2022/03/17 00:27:12;;;;;;;23.05;11.48;;;;;;;5.88;68.34;94499.91;5042471;28;20029;-79
2022/03/17 00:29:38;;;;;;;17.27;10.65;;;;;;;5.87;68.43;94497.53;5024354;28;20224;-80
2022/03/17 00:32:05;;;;;;;18.40;11.90;;;;;;;5.92;68.44;94510.75;5042090;28;20227;-80
2022/03/17 00:34:31;;;;;;;21.02;12.20;;;;;;;5.93;68.37;94504.41;5041913;28;20239;-81
2022/03/17 00:36:57;;;;;;;21.80;11.95;;;;;;;5.94;68.35;94503.34;5042140;28;20052;-79
2022/03/17 00:39:23;;;;;;;22.77;12.63;;;;;;;5.95;68.52;94497.81;5042293;28;20315;-78
2022/03/17 00:41:49;;;;;;;18.35;11.43;;;;;;;5.94;68.76;94500.69;5042059;28;20343;-78
2022/03/17 00:44:15;;;;;;;24.83;11.70;;;;;;;6.06;68.63;94514.47;5042158;28;20025;-79
2022/03/17 00:46:41;;;;;;;25.33;13.00;;;;;;;6.10;68.41;94506.78;5042079;28;20264;-79
2022/03/17 00:49:07;;;;;;;20.55;13.00;;;;;;;6.07;68.66;94512.63;5042041;28;20022;-79
2022/03/17 00:51:32;;;;;;;24.02;11.23;;;;;;;6.03;68.78;94509.72;5042119;28;20056;-79
2022/03/17 00:53:58;;;;;;;21.48;11.70;;;;;;;6.10;68.49;94523.44;5041946;28;20021;-79
2022/03/17 00:56:23;;;;;;;20.50;11.35;;;;;;;6.10;68.78;94515.50;5042016;28;20029;-79
2022/03/17 00:58:49;;;;;;;24.38;12.23;;;;;;;6.09;68.70;94516.59;5041898;28;20021;-79
2022/03/17 01:01:16;;;;;;;24.88;12.85;;;;;;;6.05;69.11;94525.34;5042387;28;20021;-79
2022/03/17 01:03:46;;;;;;;21.65;12.05;;;;;;;6.09;69.19;94529.81;5042319;28;20018;-79
2022/03/17 01:06:13;;;;;;;25.48;12.88;;;;;;;6.13;69.51;94541.44;5041947;28;20100;-80
2022/03/17 01:08:38;;;;;;;19.17;11.65;;;;;;;6.13;69.70;94538.81;5042024;28;20026;-79
2022/03/17 01:11:04;;;;;;;21.83;12.00;;;;;;;6.01;70.56;94543.59;5042098;28;20247;-81
2022/03/17 01:13:30;;;;;;;23.73;11.50;;;;;;;5.88;70.95;94544.09;5041927;28;20022;-81
2022/03/17 01:15:56;;;;;;;20.48;11.15;;;;;;;5.83;71.15;94532.47;5042014;28;20331;-81
2022/03/17 01:18:21;;;;;;;19.52;11.73;;;;;;;5.77;71.12;94548.59;5041963;28;20204;-80
2022/03/17 01:20:53;;;;;;;19.35;10.38;;;;;;;5.69;70.47;94551.78;5041722;28;20101;-81
2022/03/17 01:23:21;;;;;;;17.30;9.45;;;;;;;5.53;70.27;94545.69;5041886;28;20052;-80
2022/03/17 01:25:46;;;;;;;17.98;9.07;;;;;;;5.52;70.19;94558.13;5042122;28;20037;-81
2022/03/17 01:28:12;;;;;;;18.80;8.77;;;;;;;5.48;69.52;94551.78;5045491;28;20115;-81
2022/03/17 01:30:37;;;;;;;15.63;9.27;;;;;;;5.34;70.32;94546.22;5045463;28;20044;-81
2022/03/17 01:33:03;;;;;;;15.20;8.43;;;;;;;5.33;70.79;94559.69;5045456;28;20393;-81
2022/03/17 01:35:29;;;;;;;19.13;9.75;;;;;;;5.34;71.18;94556.78;5045357;28;20028;-81
2022/03/17 01:37:54;;;;;;;18.13;10.10;;;;;;;5.40;71.33;94566.31;5045266;28;20085;-81
2022/03/17 01:40:22;;;;;;;17.48;9.57;;;;;;;5.51;71.30;94561.81;5045090;28;20022;-81
2022/03/17 01:42:48;;;;;;;19.48;10.07;;;;;;;5.54;70.97;94573.75;5045304;28;20018;-78
2022/03/17 01:45:15;;;;;;;13.25;7.45;;;;;;;5.49;69.60;94577.16;5045346;28;20025;-79
2022/03/17 01:47:41;;;;;;;15.43;7.63;;;;;;;5.36;69.21;94569.75;5045143;28;20037;-78
2022/03/17 01:50:12;;;;;;;12.18;7.43;;;;;;;5.35;69.96;94566.31;5045159;28;20068;-79
2022/03/17 01:52:39;;;;;;;16.77;8.02;;;;;;;5.37;69.56;94574.78;5044973;28;20029;-78
2022/03/17 01:55:06;;;;;;;12.00;6.93;;;;;;;5.35;69.72;94573.44;5044970;28;20055;-78
2022/03/17 01:57:32;;;;;;;13.07;7.32;;;;;;;5.28;69.68;94573.69;5044958;28;20028;-78
2022/03/17 01:59:59;;;;;;;15.60;7.65;;;;;;;5.31;69.53;94582.94;5044908;28;20071;-78
2022/03/17 02:02:25;;;;;;;12.98;7.00;;;;;;;5.30;69.40;94570.78;5044766;28;20025;-78
2022/03/17 02:04:51;;;;;;;13.70;6.82;;;;;;;5.33;69.91;94568.44;5044775;28;20021;-78
2022/03/17 02:07:17;;;;;;;10.82;6.90;;;;;;;5.42;70.14;94564.19;5044958;28;20028;-78
2022/03/17 02:09:44;;;;;;;14.57;7.78;;;;;;;5.53;70.38;94564.19;5044738;28;20025;-78
2022/03/17 02:14:59;;;;;;;13.05;6.80;;;;;;;5.68;70.19;94566.06;5044696;28;20048;-78
2022/03/17 02:17:27;;;;;;;13.05;7.28;;;;;;;5.75;69.92;94561.31;5044605;28;20025;-79
2022/03/17 02:19:53;;;;;;;12.15;7.43;;;;;;;5.80;69.65;94559.47;5044281;28;20033;-79
2022/03/17 02:22:21;;;;;;;16.98;7.68;;;;;;;5.86;69.49;94554.16;5044582;28;20017;-79
2022/03/17 02:27:58;;;;;;;16.20;8.48;;;;;;;5.95;69.42;94577.19;5044478;28;20029;-79
2022/03/17 02:30:24;;;;;;;16.42;9.18;;;;;;;5.99;69.38;94580.91;5040247;28;20053;-79
2022/03/17 02:32:49;;;;;;;12.90;8.07;;;;;;;6.03;69.23;94573.22;5043887;28;20033;-79
2022/03/17 02:35:23;;;;;;;14.77;8.40;;;;;;;6.05;69.00;94581.69;5044335;28;20027;-79
2022/03/17 02:37:50;;;;;;;12.05;7.45;;;;;;;6.03;68.64;94578.53;5043834;28;20071;-79
2022/03/17 02:40:15;;;;;;;12.80;6.30;;;;;;;6.00;68.55;94582.50;5044391;28;20058;-80
2022/03/17 02:42:41;;;;;;;9.88;5.85;;;;;;;6.01;68.24;94588.56;5043895;28;20067;-80
2022/03/17 02:45:10;;;;;;;7.85;4.88;;;;;;;5.97;68.02;94595.47;5043968;28;20025;-80
2022/03/17 02:47:37;;;;;;;9.32;5.22;;;;;;;5.98;67.94;94594.38;5044234;28;20021;-80
2022/03/17 02:50:04;;;;;;;8.02;4.68;;;;;;;5.97;67.79;94601.53;5043923;28;20021;-80
2022/03/17 02:52:29;;;;;;;11.18;5.15;;;;;;;5.99;67.70;94603.94;5043688;28;20084;-79
2022/03/17 02:54:55;;;;;;;7.95;3.95;;;;;;;6.00;67.46;94605.50;5043775;28;20029;-80
2022/03/17 02:57:21;;;;;;;7.43;4.75;;;;;;;5.96;67.43;94599.97;5043850;28;20021;-80
2022/03/17 02:59:48;;;;;;;9.18;3.97;;;;;;;5.94;67.65;94607.34;5044058;28;20044;-79
2022/03/17 03:02:17;;;;;;;10.40;5.35;;;;;;;5.95;67.52;94613.47;5043780;28;20035;-80
2022/03/17 03:04:42;;;;;;;9.82;5.57;;;;;;;5.96;67.02;94615.03;5043577;28;20025;-80
2022/03/17 03:07:08;;;;;;;11.15;5.38;;;;;;;5.95;67.10;94610.81;5043507;28;20030;-80
2022/03/17 03:09:34;;;;;;;14.40;4.78;;;;;;;5.94;66.76;94611.81;5043577;28;20021;-80
2022/03/17 03:12:00;;;;;;;9.32;5.63;;;;;;;5.96;67.04;94613.19;5043394;28;20089;-79
2022/03/17 03:14:26;;;;;;;7.95;4.85;;;;;;;5.93;67.14;94616.34;5043501;28;20033;-80
2022/03/17 03:16:51;;;;;;;8.80;4.85;;;;;;;5.92;67.15;94622.69;5043285;28;20028;-80
2022/03/17 03:19:17;;;;;;;7.50;4.65;;;;;;;5.91;67.07;94617.66;5044833;28;20033;-80
2022/03/17 03:21:45;;;;;;;9.55;5.45;;;;;;;5.97;66.78;94621.91;5044379;28;20021;-80
2022/03/17 03:24:12;;;;;;;8.20;4.78;;;;;;;5.95;66.88;94616.09;5044297;28;20333;-80
2022/03/17 03:26:37;;;;;;;8.23;4.88;;;;;;;5.99;67.11;94620.59;5043845;28;20025;-80
2022/03/17 03:29:22;;;;;;;9.27;4.95;;;;;;;5.96;67.27;94625.63;5044283;28;20037;-81
2022/03/17 03:31:50;;;;;;;7.70;4.15;;;;;;;5.96;66.98;94633.56;5043898;28;20124;-81
2022/03/17 03:34:15;;;;;;;5.78;3.65;;;;;;;5.97;66.43;94632.50;5043401;28;20045;-81
2022/03/17 03:39:25;;;;;;;7.45;3.90;;;;;;;5.97;66.29;94628.00;5043527;28;20079;-81
2022/03/17 03:41:51;;;;;;;7.43;4.43;;;;;;;5.95;65.46;94629.34;5043057;28;20092;-81
2022/03/17 03:44:17;;;;;;;9.80;6.03;;;;;;;5.93;65.04;94628.78;5042859;28;20025;-80
2022/03/17 03:46:43;;;;;;;9.80;5.47;;;;;;;5.95;64.21;94632.75;5043063;28;20032;-83
2022/03/17 03:49:09;;;;;;;8.18;4.85;;;;;;;5.89;63.79;94631.16;5042219;28;20097;-83
2022/03/17 03:51:34;;;;;;;8.70;5.90;;;;;;;5.89;63.60;94640.94;5042659;28;20028;-82
2022/03/17 03:54:18;;;;;;;10.60;5.97;;;;;;;5.83;63.72;94637.50;5042677;28;20045;-83
2022/03/17 03:56:44;;;;;;;12.02;5.65;;;;;;;5.80;63.82;94644.13;5042949;28;20036;-82
2022/03/17 03:59:17;;;;;;;11.23;6.10;;;;;;;5.78;63.67;94653.34;5025307;28;20339;-81
2022/03/17 04:01:43;;;;;;;11.18;5.93;;;;;;;5.74;63.66;94650.47;5042850;28;20037;-81
2022/03/17 04:04:09;;;;;;;13.73;6.68;;;;;;;5.73;63.88;94653.34;5042784;28;20342;-81
2022/03/17 04:06:40;;;;;;;12.48;6.88;;;;;;;5.71;63.58;94658.13;5042783;28;20209;-81
2022/03/17 04:09:05;;;;;;;11.80;6.68;;;;;;;5.69;63.77;94660.22;5042577;28;20032;-80
2022/03/17 04:11:31;;;;;;;11.95;7.20;;;;;;;5.65;63.81;94667.88;5042310;28;20025;-80
2022/03/17 04:13:56;;;;;;;12.07;7.13;;;;;;;5.64;63.88;94671.59;5042845;28;20071;-80
2022/03/17 04:16:22;;;;;;;11.30;6.88;;;;;;;5.61;63.94;94656.25;5042674;28;20021;-79
2022/03/17 04:18:47;;;;;;;13.70;7.70;;;;;;;5.60;63.98;94675.81;5042688;28;20036;-79
2022/03/17 04:21:13;;;;;;;14.35;6.70;;;;;;;5.60;64.11;94675.81;5042497;28;20105;-82
2022/03/17 04:23:38;;;;;;;13.55;7.50;;;;;;;5.55;64.28;94683.72;5042551;28;20032;-82
2022/03/17 04:26:04;;;;;;;28.67;9.23;;;;;;;5.52;64.68;94687.69;5042482;28;20096;-82
2022/03/17 04:28:29;;;;;;;18.60;9.88;;;;;;;5.47;64.73;94695.59;5042543;28;20276;-82
2022/03/17 04:30:54;;;;;;;15.77;8.93;;;;;;;5.42;64.94;94696.38;5042166;28;20073;-82
2022/03/17 04:33:20;;;;;;;14.10;8.45;;;;;;;5.39;64.93;94707.50;5042273;28;20358;-81
2022/03/17 04:35:46;;;;;;;15.68;8.77;;;;;;;5.38;64.96;94705.91;5042496;28;20323;-81
2022/03/17 04:38:11;;;;;;;14.57;8.27;;;;;;;5.35;64.99;94709.06;5042339;28;20029;-81
2022/03/17 04:40:36;;;;;;;15.43;8.32;;;;;;;5.38;64.89;94711.19;5042147;28;20093;-81
2022/03/17 04:43:02;;;;;;;13.15;7.78;;;;;;;5.34;64.70;94710.13;5042083;28;20097;-80
2022/03/17 04:45:27;;;;;;;13.20;8.30;;;;;;;5.35;64.83;94718.81;5042384;28;20320;-81
2022/03/17 04:47:53;;;;;;;14.18;7.95;;;;;;;5.35;64.77;94717.00;5042075;28;20367;-81
2022/03/17 04:50:18;;;;;;;15.85;8.82;;;;;;;5.29;65.04;94710.09;5042363;28;20025;-81
2022/03/17 04:55:28;;;;;;;12.88;8.10;;;;;;;5.22;65.35;94712.19;5042355;28;20028;-82
2022/03/17 04:57:53;;;;;;;14.32;7.95;;;;;;;5.21;65.17;94719.31;5042622;28;20033;-75
2022/03/17 05:00:19;;;;;;;14.30;8.93;;;;;;;5.21;65.15;94726.44;5043471;28;20017;-81
2022/03/17 05:02:44;;;;;;;14.82;8.43;;;;;;;5.20;64.90;94727.50;5045875;28;20096;-76
2022/03/17 05:05:10;;;;;;;16.65;8.82;;;;;;;5.22;64.72;94725.38;5045829;28;20105;-77
2022/03/17 05:07:35;;;;;;;15.90;8.85;;;;;;;5.26;64.84;94729.09;5045973;28;20044;-77
2022/03/17 05:10:01;;;;;;;13.35;7.70;;;;;;;5.21;64.95;94731.72;5046059;28;20341;-77
2022/03/17 05:12:27;;;;;;;15.25;7.72;;;;;;;5.22;64.91;94733.31;5045773;28;20068;-78
2022/03/17 05:14:52;;;;;;;13.40;7.63;;;;;;;5.21;64.61;94737.00;5045798;28;20041;-77
2022/03/17 05:17:18;;;;;;;13.45;7.00;;;;;;;5.20;64.72;94751.28;5046039;28;20304;-77
2022/03/17 05:19:43;;;;;;;12.82;7.63;;;;;;;5.20;64.79;94748.66;5045549;28;20024;-76
2022/03/17 05:22:08;;;;;;;10.80;6.35;;;;;;;5.20;64.81;94751.28;5044334;28;20017;-80
2022/03/17 05:24:34;;;;;;;14.50;8.70;;;;;;;5.09;64.60;94754.91;5044168;28;20227;-80
2022/03/17 05:26:59;;;;;;;18.30;7.55;;;;;;;5.07;64.86;94757.00;5045112;28;20022;-80
2022/03/17 05:29:25;;;;;;;14.80;8.10;;;;;;;4.97;64.93;94763.84;5045345;28;20025;-81
2022/03/17 05:31:50;;;;;;;14.20;7.20;;;;;;;4.88;64.67;94762.72;5045457;28;20041;-79
2022/03/17 05:34:16;;;;;;;17.67;8.10;;;;;;;4.75;65.43;94761.31;5045503;28;20049;-80
2022/03/17 05:36:41;;;;;;;12.18;7.78;;;;;;;4.70;66.04;94763.13;5044753;28;20025;-74
2022/03/17 05:39:07;;;;;;;20.38;8.75;;;;;;;4.70;66.37;94763.13;5043438;28;20312;-73
2022/03/17 05:41:32;;;;;;;13.68;7.65;;;;;;;4.68;66.45;94771.31;5043347;28;20259;-74
2022/03/17 05:43:58;;;;;;;13.15;7.65;;;;;;;4.73;66.24;94776.63;5043440;28;20021;-73
2022/03/17 05:46:25;;;;;;;9.32;5.55;;;;;;;4.76;66.13;94785.88;5043291;28;20319;-73
2022/03/17 05:48:51;;;;;;;10.70;6.15;;;;;;;4.75;65.69;94786.94;5043497;28;20044;-74
2022/03/17 05:51:17;;;;;;;15.40;6.93;;;;;;;4.79;65.54;94795.97;5043595;28;20258;-75
2022/03/17 05:53:42;;;;;;;13.55;6.70;;;;;;;4.81;65.64;94807.84;5044969;28;20056;-74
2022/03/17 05:56:08;;;;;;;11.88;6.60;;;;;;;4.79;65.87;94809.94;5045280;28;20022;-75
2022/03/17 05:58:33;;;;;;;10.82;6.63;;;;;;;4.77;66.14;94812.06;5045068;28;20025;-74
2022/03/17 06:00:59;;;;;;;10.98;6.75;;;;;;;4.75;66.26;94810.72;5045042;28;20029;-76
2022/03/17 06:03:25;;;;;;;10.45;6.00;;;;;;;4.70;66.00;94815.94;5044909;28;20067;-76
2022/03/17 06:05:51;;;;;;;10.20;5.95;;;;;;;4.72;66.29;94819.13;5045072;28;20261;-76
2022/03/17 06:08:16;;;;;;;9.27;5.70;;;;;;;4.77;65.94;94816.53;5044480;28;20029;-74
2022/03/17 06:10:42;;;;;;;11.48;6.20;;;;;;;4.71;65.93;94807.78;5045034;28;20021;-73
2022/03/17 06:13:07;;;;;;;15.05;6.07;;;;;;;4.75;65.89;94826.56;5043459;28;20033;-74
2022/03/17 06:15:34;;;;;;;12.32;5.95;;;;;;;4.73;65.39;94818.88;5044388;28;20013;-73
2022/03/17 06:18:02;;;;;;;10.32;5.85;;;;;;;4.72;65.36;94819.94;5044646;28;20028;-74
2022/03/17 06:20:30;;;;;;;11.60;5.32;;;;;;;4.72;64.91;94835.81;5044518;28;20028;-74
2022/03/17 06:22:59;;;;;;;10.57;5.85;;;;;;;4.72;65.34;94829.69;5044698;28;20395;-74
2022/03/17 06:25:26;;;;;;;13.43;6.85;;;;;;;4.72;65.36;94834.97;5044615;28;20089;-74
2022/03/17 06:27:52;;;;;;;10.63;6.28;;;;;;;4.71;65.55;94833.41;5044606;28;20022;-75
2022/03/17 06:30:20;;;;;;;13.93;5.45;;;;;;;4.70;65.49;94829.97;5044517;28;20029;-74
2022/03/17 06:32:46;;;;;;;7.93;4.97;;;;;;;4.68;65.53;94836.53;5026463;28;20049;-75
2022/03/17 06:35:17;;;;;;;13.25;5.53;;;;;;;4.72;65.89;94834.97;5044505;28;20029;-75
2022/03/17 06:37:47;;;;;;;9.45;5.45;;;;;;;4.67;65.89;94845.50;5044142;28;20371;-76
2022/03/17 06:40:15;;;;;;;8.98;5.10;;;;;;;4.48;66.53;94851.16;5044307;28;20025;-75
2022/03/17 06:42:42;;;;;;;11.43;6.18;;;;;;;4.35;66.55;94854.97;5044355;28;20022;-75
2022/03/17 06:45:08;;;;;;;9.50;4.53;;;;;;;4.21;66.63;94851.97;5044135;28;20193;-75
2022/03/17 06:47:34;;;;;;;10.10;4.60;;;;;;;4.04;66.48;94856.50;5044323;28;20063;-75
2022/03/17 06:49:59;;;;;;;9.27;4.38;;;;;;;3.99;67.46;94859.91;5044216;28;20017;-75
2022/03/17 06:52:25;;;;;;;9.20;4.93;;;;;;;3.88;67.90;94858.19;5044017;28;20029;-74
2022/03/17 06:54:51;;;;;;;6.43;3.58;;;;;;;3.91;68.06;94854.25;5044229;28;20324;-74
2022/03/17 06:57:18;;;;;;;8.85;3.92;;;;;;;3.92;68.10;94871.69;5043987;28;20059;-74
2022/03/17 06:59:44;;;;;;;9.35;4.30;;;;;;;3.98;68.02;94862.78;5044184;28;20025;-75
2022/03/17 07:02:09;;;;;;;6.53;3.90;;;;;;;3.99;68.19;94854.63;5043916;28;20247;-75
2022/03/17 07:04:35;;;;;;;6.95;3.75;;;;;;;4.01;68.29;94868.38;5043863;28;20215;-75
2022/03/17 07:07:00;;;;;;;7.38;4.50;;;;;;;4.07;68.42;94866.59;5044023;28;20219;-75
2022/03/17 07:09:26;;;;;;;5.80;3.70;;;;;;;4.08;68.80;94872.66;5043638;28;20112;-74
2022/03/17 07:11:51;;;;;;;7.25;4.15;;;;;;;4.10;67.75;94875.84;5043900;28;20067;-74
2022/03/17 07:14:16;;;;;;;9.65;5.25;;;;;;;4.04;66.96;94882.09;5043761;28;20017;-75
2022/03/17 07:16:42;;;;;;;9.70;4.38;;;;;;;3.91;67.38;94884.06;5043686;28;20153;-75
2022/03/17 07:19:07;;;;;;;15.27;5.25;;;;;;;3.83;68.29;94889.78;5043632;28;20080;-75
2022/03/17 07:21:33;;;;;;;16.58;5.90;;;;;;;3.82;69.04;94890.81;5043458;28;20022;-74
2022/03/17 07:23:59;;;;;;;10.25;5.28;;;;;;;3.79;69.35;94884.19;5043532;28;20021;-74
2022/03/17 07:26:26;;;;;;;14.32;5.15;;;;;;;3.78;69.17;94884.44;5043630;28;20219;-75
2022/03/17 07:28:54;;;;;;;12.13;6.05;;;;;;;3.68;69.34;94884.31;5043410;28;20032;-75
2022/03/17 07:31:20;;;;;;;12.48;5.57;;;;;;;3.67;69.29;94893.28;5043346;28;20064;-75
2022/03/17 07:33:46;;;;;;;11.75;6.78;;;;;;;3.61;69.61;94887.13;5043268;28;20348;-75
2022/03/17 07:36:11;;;;;;;17.33;5.53;;;;;;;3.53;69.89;94898.88;5043359;28;20017;-75
2022/03/17 07:38:36;;;;;;;12.48;6.75;;;;;;;3.51;70.73;94894.91;5043072;28;20052;-75
2022/03/17 07:41:03;;;;;;;16.48;6.85;;;;;;;3.50;70.89;94904.66;5043064;28;20064;-75
2022/03/17 07:43:28;;;;;;;13.73;6.15;;;;;;;3.45;70.79;94901.94;5043110;28;20021;-75
2022/03/17 07:45:54;;;;;;;15.93;6.10;;;;;;;3.41;71.14;94900.81;5043583;28;20111;-75
2022/03/17 07:48:20;;;;;;;16.63;5.75;;;;;;;3.38;71.32;94902.09;5043067;28;20025;-75
2022/03/17 07:50:46;;;;;;;17.00;6.05;;;;;;;3.37;71.54;94910.25;5043123;28;20057;-75
2022/03/17 07:53:11;;;;;;;24.73;6.05;;;;;;;3.40;71.27;94910.56;5042885;28;20316;-75
2022/03/17 07:55:38;;;;;;;17.58;6.78;;;;;;;3.41;71.37;94898.97;5043019;28;20025;-75
2022/03/17 07:58:04;;;;;;;15.40;6.80;;;;;;;3.45;71.06;94903.78;5043115;28;20043;-75
2022/03/17 08:00:29;;;;;;;11.02;6.53;;;;;;;3.42;71.07;94899.78;5042831;28;20284;-75
2022/03/17 08:02:55;;;;;;;15.05;6.35;;;;;;;3.39;71.29;94903.69;5043040;28;20026;-75
2022/03/17 08:05:20;;;;;;;16.58;7.00;;;;;;;3.40;71.45;94900.03;5042571;28;20030;-75
2022/03/17 08:07:46;;;;;;;13.65;7.47;;;;;;;3.47;71.92;94901.69;5042831;28;20033;-75
2022/03/17 08:10:13;;;;;;;15.18;7.68;;;;;;;3.56;72.17;94903.69;5042926;28;20033;-75
2022/03/17 08:12:39;;;;;;;14.50;7.60;;;;;;;3.60;71.51;94909.25;5042561;28;20101;-74
2022/03/17 08:15:05;;;;;;;15.95;7.78;;;;;;;3.61;71.16;94908.22;5042658;28;20067;-75
2022/03/17 08:17:31;;;;;;;14.70;7.35;;;;;;;3.63;71.14;94902.72;5042712;28;20021;-74
2022/03/17 08:19:57;;;;;;;15.93;8.02;;;;;;;3.64;71.47;94899.81;5042748;28;20021;-75
2022/03/17 08:22:23;;;;;;;12.88;8.00;;;;;;;3.69;71.29;94902.53;5042703;28;20339;-74
2022/03/17 08:24:49;;;;;;;15.52;7.65;;;;;;;3.75;71.03;94906.81;5042378;28;20057;-75
2022/03/17 08:27:14;;;;;;;21.80;7.93;;;;;;;3.88;70.47;94907.50;5042551;28;20255;-75
2022/03/17 08:29:40;;;;;;;15.57;8.35;;;;;;;3.98;69.82;94908.41;5042013;28;20025;-74
2022/03/17 08:32:06;;;;;;;15.65;8.80;;;;;;;4.09;70.23;94908.53;5042250;28;20041;-74
2022/03/17 08:34:32;;;;;;;19.55;9.63;;;;;;;4.15;69.95;94903.09;5042886;28;20059;-74
2022/03/17 08:36:59;;;;;;;17.27;9.57;;;;;;;4.24;69.83;94902.66;5048821;28;20277;-77
2022/03/17 08:39:26;;;;;;;24.65;9.35;;;;;;;4.33;69.13;94895.88;5049046;28;20092;-78
2022/03/17 08:41:52;;;;;;;21.20;10.05;;;;;;;4.41;68.95;94895.44;5048892;28;20021;-79
2022/03/17 08:44:18;;;;;;;16.02;10.57;;;;;;;4.43;68.83;94906.53;5048782;28;20114;-76
2022/03/17 08:49:27;;;;;;;17.45;10.02;;;;;;;4.47;70.66;94912.13;5048694;28;20349;-72
2022/03/17 08:51:56;;;;;;;17.98;10.65;;;;;;;4.62;70.73;94910.44;5048738;28;20029;-71
2022/03/17 08:54:25;;;;;;;20.77;10.63;;;;;;;4.74;70.79;94906.84;5048947;28;20055;-71
2022/03/17 08:56:59;;;;;;;16.73;10.35;;;;;;;4.89;70.21;94906.97;5048780;28;20029;-71
2022/03/17 08:59:30;;;;;;;19.08;10.63;;;;;;;4.87;69.69;94917.00;5048812;28;20033;-71
2022/03/17 09:02:03;;;;;;;16.25;9.48;;;;;;;5.06;69.62;94906.06;5048690;28;20021;-71
2022/03/17 09:04:29;;;;;;;16.30;9.93;;;;;;;5.24;69.47;94916.25;5048733;28;20039;-71
2022/03/17 09:06:59;;;;;;;17.58;10.27;;;;;;;5.36;68.80;94919.50;5048788;28;20017;-71
2022/03/17 09:09:35;;;;;;;18.30;10.68;;;;;;;5.50;69.08;94914.56;5048958;28;20087;-74
2022/03/17 09:12:06;;;;;;;14.82;8.65;;;;;;;5.65;67.74;94923.66;5048233;28;20025;-74
2022/03/17 09:14:32;;;;;;;17.73;10.38;;;;;;;5.70;67.10;94921.84;5048601;28;20025;-73
2022/03/17 09:16:58;;;;;;;15.55;9.00;;;;;;;5.50;65.89;94925.16;5048651;28;20024;-73
2022/03/17 09:19:23;;;;;;;15.75;9.07;;;;;;;5.63;66.48;94926.53;5048644;28;20211;-70
2022/03/17 09:21:52;;;;;;;16.23;9.10;;;;;;;5.68;66.96;94931.88;5048469;28;20019;-72
2022/03/17 09:24:18;;;;;;;12.82;8.07;;;;;;;5.72;66.51;94922.38;5048602;28;20032;-77
2022/03/17 09:27:14;;;;;;;11.82;7.22;;;;;;;5.79;66.10;94935.38;5048436;28;20089;-79
2022/03/17 09:29:31;;;;;;;17.63;7.70;;;;;;;5.74;65.80;94949.38;5044071;28;20256;-80
2022/03/17 09:32:06;;;;;;;17.65;8.27;;;;;;;5.75;65.45;94947.53;5048429;28;20026;-80
2022/03/17 09:34:32;;;;;;;16.73;8.55;;;;;;;5.69;65.76;94957.28;5047955;28;20220;-81
2022/03/17 09:37:00;;;;;;;14.32;8.07;;;;;;;5.68;66.07;94952.22;5048699;28;20036;-81
2022/03/17 09:42:26;;;;;;;17.92;8.32;;;;;;;5.56;65.14;94960.38;5024455;28;20035;-82
2022/03/17 09:44:55;;;;;;;14.48;9.05;;;;;;;5.58;65.49;94968.84;5047561;28;20025;-82
2022/03/17 09:47:24;;;;;;;23.23;12.05;;;;;;;5.63;65.87;94968.88;5042983;28;20095;-82
2022/03/17 09:49:53;;;;;;;16.45;9.73;;;;;;;5.59;65.66;94965.13;5044333;28;20308;-82
2022/03/17 09:52:20;;;;;;;15.57;9.00;;;;;;;5.32;65.66;94968.66;5044222;28;20347;-83
2022/03/17 09:54:52;;;;;;;19.27;9.38;;;;;;;5.39;66.10;94963.13;5044378;28;20030;-82
2022/03/17 09:57:18;;;;;;;16.10;10.25;;;;;;;5.45;65.87;94966.63;5045014;28;20071;-82
2022/03/17 09:59:53;;;;;;;14.20;9.10;;;;;;;5.49;66.38;94965.84;5044928;28;20201;-83
2022/03/17 10:02:20;;;;;;;15.02;9.07;;;;;;;5.50;66.96;94972.75;5045150;28;20025;-82
2022/03/17 10:04:47;;;;;;;16.52;8.80;;;;;;;5.57;66.35;94967.25;5044978;28;20029;-82
2022/03/17 10:07:16;;;;;;;16.52;9.57;;;;;;;5.45;65.09;94977.19;5027468;28;20024;-82
2022/03/17 10:09:43;;;;;;;14.35;8.98;;;;;;;5.46;64.22;94965.59;5044821;28;20335;-82
2022/03/17 10:12:10;;;;;;;18.35;9.55;;;;;;;5.51;64.29;94973.53;5044725;28;20024;-82
2022/03/17 10:14:45;;;;;;;17.85;8.98;;;;;;;5.57;64.96;94980.47;5044854;28;20043;-82
2022/03/17 10:17:30;;;;;;;14.52;8.80;;;;;;;5.59;65.51;94975.72;5044759;28;20037;-82
2022/03/17 10:20:19;;;;;;;22.58;10.30;;;;;;;5.68;65.60;94979.50;5044775;28;20013;-82
2022/03/17 10:23:01;;;;;;;16.00;8.70;;;;;;;5.69;65.03;94978.44;5044583;28;20044;-82
2022/03/17 10:25:30;;;;;;;21.15;10.52;;;;;;;5.71;64.91;94973.69;5044474;28;20064;-81
2022/03/17 10:27:57;;;;;;;20.00;9.40;;;;;;;5.70;65.13;94969.47;5044524;28;20078;-81
2022/03/17 10:30:32;;;;;;;21.10;9.05;;;;;;;5.74;65.53;94970.53;5044612;28;20308;-81
2022/03/17 10:33:03;;;;;;;14.80;8.70;;;;;;;5.71;64.84;94983.47;5044053;28;20055;-82
2022/03/17 10:35:34;;;;;;;15.05;7.70;;;;;;;5.72;64.08;94985.88;5044261;28;20025;-82
2022/03/17 10:38:10;;;;;;;10.93;6.55;;;;;;;5.57;62.84;94983.09;5044234;28;20036;-82
2022/03/17 10:40:36;;;;;;;11.68;7.10;;;;;;;5.48;63.07;94984.63;5044198;28;20018;-82
2022/03/17 10:43:19;;;;;;;16.88;8.20;;;;;;;5.46;64.25;94981.44;5026723;28;20023;-83
2022/03/17 10:45:45;;;;;;;16.92;7.60;;;;;;;5.50;64.82;94974.59;5044158;28;20045;-83
2022/03/17 10:48:11;;;;;;;14.85;8.13;;;;;;;5.52;64.51;94980.44;5044207;28;20201;-83
2022/03/17 10:50:43;;;;;;;15.73;8.40;;;;;;;5.53;64.57;94987.31;5044052;28;20052;-83
2022/03/17 10:53:10;;;;;;;14.50;7.90;;;;;;;5.56;64.92;94984.16;5043894;28;20022;-82
2022/03/17 10:55:45;;;;;;;13.55;7.85;;;;;;;5.61;64.94;94987.63;5043732;28;20021;-82
2022/03/17 10:58:22;;;;;;;14.60;7.85;;;;;;;5.63;64.89;94984.75;5043542;28;20017;-82
2022/03/17 11:00:53;;;;;;;16.05;10.35;;;;;;;5.66;64.94;94976.31;5043899;28;20021;-82
2022/03/17 11:03:20;;;;;;;23.33;11.02;;;;;;;5.68;65.27;94984.78;5026063;28;20018;-82
2022/03/17 11:05:45;;;;;;;22.35;9.73;;;;;;;5.66;65.29;94980.78;5043707;28;20096;-82
2022/03/17 11:08:11;;;;;;;17.92;9.20;;;;;;;5.70;65.56;94985.31;5043756;28;20266;-83
2022/03/17 11:10:39;;;;;;;12.30;7.68;;;;;;;5.74;65.77;94978.47;5043708;28;20186;-82
2022/03/17 11:13:11;;;;;;;16.95;8.30;;;;;;;5.77;65.69;94977.94;5025669;28;20025;-82
2022/03/17 11:15:41;;;;;;;;;;;;;;;5.82;65.83;94985.13;5044096;28;20079;-83
2022/03/17 11:18:17;;;;;;;15.75;8.70;;;;;;;5.80;65.81;94980.09;5043572;28;19920;-82
2022/03/17 11:20:43;;;;;;;16.38;8.05;;;;;;;5.85;65.65;94967.97;5025940;28;20228;-82
2022/03/17 11:23:19;;;;;;;18.60;10.32;;;;;;;5.88;65.85;94978.00;5043430;28;20018;-82
2022/03/17 11:25:53;;;;;;;18.17;8.68;;;;;;;5.92;65.77;94973.81;5043518;28;20029;-82
2022/03/17 11:28:37;;;;;;;16.27;7.20;;;;;;;5.97;65.38;94971.22;5043733;28;20044;-82
2022/03/17 11:31:12;;;;;;;11.00;6.70;;;;;;;6.01;65.31;94969.66;5043393;28;20034;-82
2022/03/17 11:33:42;;;;;;;11.93;7.13;;;;;;;6.05;65.06;94973.38;5043359;28;20045;-82
2022/03/17 11:36:08;;;;;;;24.15;6.68;;;;;;;6.08;64.67;94966.78;5043440;28;20224;-82
2022/03/17 11:38:36;;;;;;;11.35;6.85;;;;;;;6.03;64.79;94971.00;5043306;28;20060;-82
2022/03/17 11:41:07;;;;;;;11.27;6.47;;;;;;;6.08;64.58;94964.91;5043229;28;20025;-82
2022/03/17 11:44:00;;;;;;;16.55;6.85;;;;;;;6.12;64.65;94958.06;5043288;28;20185;-82
2022/03/17 11:46:34;;;;;;;11.30;6.15;;;;;;;6.10;64.37;94957.53;5043014;28;20232;-82
2022/03/17 11:49:20;;;;;;;14.05;6.45;;;;;;;6.14;64.44;94955.94;5043258;28;20063;-82
2022/03/17 11:52:12;;;;;;;10.00;6.53;;;;;;;6.19;64.62;94953.34;5042652;28;20017;-82